Time;durP1;ratioP1;P1;durP2;ratioP2;P2;SDS_P1;SDS_P2;PMS_P1;PMS_P2;Temp;Humidity;BMP_temperature;BMP_pressure;BME280_temperature;BME280_humidity;BME280_pressure;Samples;Min_cycle;Max_cycle;Signal;HPM_P1;HPM_P2
2023/01/11 00:00:37;;;;;;;;;;;;;;;10.45;70.01;100264.84;5091643;28;19934;-60
2023/01/11 00:03:04;;;;;;;;;;;;;;;10.43;71.05;100261.34;5084197;28;19979;-60
2023/01/11 00:05:29;;;;;;;;;;;;;;;10.46;70.81;100265.72;5087065;28;19951;-60
2023/01/11 00:07:55;;;;;;;;;;;;;;;10.44;72.08;100259.56;5071874;28;20392;-60
2023/01/11 00:10:20;;;;;;;;;;;;;;;10.39;72.15;100262.31;5086620;28;19962;-60
2023/01/11 00:12:46;;;;;;;;;;;;;;;10.46;72.45;100250.63;5089138;28;19940;-60
2023/01/11 00:15:12;;;;;;;;;;;;;;;10.44;72.17;100252.44;5094818;28;19945;-60
2023/01/11 00:17:37;;;;;;;;;;;;;;;10.45;71.92;100261.28;5087122;28;19942;-60
2023/01/11 00:20:02;;;;;;;;;;;;;;;10.45;72.44;100248.88;5091517;28;19938;-60
2023/01/11 00:22:28;;;;;;;;;;;;;;;10.45;72.50;100248.88;5075423;28;19985;-60
2023/01/11 00:24:53;;;;;;;;;;;;;;;10.47;72.19;100247.06;5085094;28;19937;-60
2023/01/11 00:27:18;;;;;;;;;;;;;;;10.42;72.58;100256.94;5078822;28;19960;-60
2023/01/11 00:29:44;;;;;;;;;;;;;;;10.46;72.93;100245.28;5084054;28;19951;-60
2023/01/11 00:32:09;;;;;;;;;;;;;;;10.53;72.40;100241.56;5091893;28;19931;-59
2023/01/11 00:34:34;;;;;;;;;;;;;;;10.55;72.10;100238.84;5088765;28;20666;-60
2023/01/11 00:36:59;;;;;;;;;;;;;;;10.54;72.14;100229.13;5070304;28;19938;-59
2023/01/11 00:39:25;;;;;;;;;;;;;;;10.51;72.11;100230.06;5082548;28;19976;-59
2023/01/11 00:50:02;;;;;;;;;;;;;;;10.56;73.20;100203.34;5088748;28;19982;-59
2023/01/11 00:52:27;;;;;;;;;;;;;;;10.53;73.11;100193.69;5079283;28;19943;-60
2023/01/11 00:54:53;;;;;;;;;;;;;;;10.57;73.79;100198.00;5091989;28;19964;-60
2023/01/11 00:57:18;;;;;;;;;;;;;;;10.60;73.27;100189.06;5083071;28;20306;-60
2023/01/11 00:59:43;;;;;;;;;;;;;;;10.61;73.62;100186.34;5091606;28;19950;-60
2023/01/11 01:02:09;;;;;;;;;;;;;;;10.71;74.24;100164.78;5080460;28;20358;-60
2023/01/11 01:04:35;;;;;;;;;;;;;;;10.65;74.82;100181.81;5074545;28;20065;-59
2023/01/11 01:07:00;;;;;;;;;;;;;;;10.62;74.91;100188.06;5071036;28;19967;-60
2023/01/11 01:09:25;;;;;;;;;;;;;;;10.68;74.50;100173.72;5078781;28;19955;-60
2023/01/11 01:11:51;;;;;;;;;;;;;;;10.71;75.56;100175.44;5074965;28;19983;-60
2023/01/11 01:14:25;;;;;;;;;;;;;;;10.72;75.46;100172.72;5072063;28;19931;-60
2023/01/11 01:16:54;;;;;;;;;;;;;;;10.73;76.40;100177.13;5074904;28;20029;-60
2023/01/11 01:19:21;;;;;;;;;;;;;;;10.68;76.17;100173.72;5071788;28;19934;-60
2023/01/11 01:21:47;;;;;;;;;;;;;;;10.79;76.97;100163.63;5071581;28;19927;-59
2023/01/11 01:24:12;;;;;;;;;;;;;;;10.75;77.34;100151.34;5077494;28;19938;-60
2023/01/11 01:26:37;;;;;;;;;;;;;;;10.76;77.42;100146.91;5070991;28;20011;-60
2023/01/11 01:29:03;;;;;;;;;;;;;;;10.78;78.05;100150.38;5073570;28;19948;-60
2023/01/11 01:31:28;;;;;;;;;;;;;;;10.81;79.13;100155.63;5071605;28;19964;-60
2023/01/11 01:33:53;;;;;;;;;;;;;;;10.76;79.93;100157.53;5071508;28;19940;-60
2023/01/11 01:36:18;;;;;;;;;;;;;;;10.82;80.15;100154.69;5073824;28;19954;-60
2023/01/11 01:38:44;;;;;;;;;;;;;;;10.86;80.74;100151.00;5072012;28;19975;-60
2023/01/11 01:41:11;;;;;;;;;;;;;;;10.83;80.54;100164.41;5082872;28;20410;-60
2023/01/11 01:43:48;;;;;;;;;;;;;;;10.84;80.97;100159.03;5072136;28;20388;-60
2023/01/11 01:46:13;;;;;;;;;;;;;;;10.92;80.96;100158.81;5072224;28;19934;-60
2023/01/11 01:48:40;;;;;;;;;;;;;;;10.92;82.25;100166.78;5073692;28;19963;-61
2023/01/11 01:51:08;;;;;;;;;;;;;;;10.97;81.58;100168.34;5072108;28;19935;-61
2023/01/11 01:53:38;;;;;;;;;;;;;;;10.99;82.23;100169.19;5080816;28;19942;-61
2023/01/11 01:56:07;;;;;;;;;;;;;;;10.97;82.67;100171.03;5088091;28;19990;-61
2023/01/11 01:58:38;;;;;;;;;;;;;;;11.00;83.00;100178.94;5071832;28;20465;-61
2023/01/11 02:03:48;;;;;;;;;;;;;;;10.96;84.50;100177.28;5080958;28;19943;-60
2023/01/11 02:06:14;;;;;;;;;;;;;;;10.96;85.23;100184.38;5091506;28;19957;-60
2023/01/11 02:08:42;;;;;;;;;;;;;;;10.90;88.11;100190.78;5091908;28;19952;-60
2023/01/11 02:11:28;;;;;;;;;;;;;;;10.83;90.04;100175.91;5090768;28;19967;-60
2023/01/11 02:13:54;;;;;;;;;;;;;;;10.76;91.92;100178.84;5072004;28;20305;-60
2023/01/11 02:16:20;;;;;;;;;;;;;;;10.68;92.20;100180.81;5075128;28;20374;-60
2023/01/11 02:18:45;;;;;;;;;;;;;;;10.67;92.78;100184.41;5091883;28;19936;-60
2023/01/11 02:21:33;;;;;;;;;;;;;;;10.65;92.71;100171.16;5087629;28;19943;-60
2023/01/11 02:24:13;;;;;;;;;;;;;;;10.74;92.64;100159.38;5092169;28;20019;-60
2023/01/11 02:26:38;;;;;;;;;;;;;;;10.71;92.89;100157.66;5080964;28;19959;-60
2023/01/11 02:29:22;;;;;;;;;;;;;;;10.75;93.04;100155.78;5074107;28;19953;-59
2023/01/11 02:31:56;;;;;;;;;;;;;;;10.81;93.50;100166.25;5071505;28;19950;-60
2023/01/11 02:34:40;;;;;;;;;;;;;;;10.77;94.10;100144.19;5070923;28;19928;-60
2023/01/11 02:37:13;;;;;;;;;;;;;;;10.81;94.73;100135.19;5090411;28;19941;-60
2023/01/11 02:39:42;;;;;;;;;;;;;;;10.85;94.45;100125.31;5091823;28;19986;-60
2023/01/11 02:45:13;;;;;;;;;;;;;;;10.94;94.53;100130.34;5071776;28;19937;-61
2023/01/11 02:47:45;;;;;;;;;;;;;;;10.96;94.32;100123.16;5073643;28;19950;-60
2023/01/11 02:50:28;;;;;;;;;;;;;;;10.98;93.94;100111.56;5071449;28;19941;-61
2023/01/11 02:53:04;;;;;;;;;;;;;;;11.08;94.72;100117.44;5075130;28;19943;-60
2023/01/11 02:55:37;;;;;;;;;;;;;;;11.08;94.01;100126.31;5090073;28;19963;-60
2023/01/11 02:58:05;;;;;;;;;;;;;;;11.09;95.20;100113.84;5089651;28;19942;-60
2023/01/11 03:00:30;;;;;;;;;;;;;;;11.09;94.70;100093.44;5093570;28;19926;-60
2023/01/11 03:03:07;;;;;;;;;;;;;;;11.13;94.08;100095.09;5090948;28;19954;-60
2023/01/11 03:05:34;;;;;;;;;;;;;;;11.15;94.60;100087.06;5095065;28;20814;-61
2023/01/11 03:08:03;;;;;;;;;;;;;;;11.22;94.48;100081.47;5090446;28;19957;-61
2023/01/11 03:10:43;;;;;;;;;;;;;;;11.21;94.02;100076.19;5091868;28;20480;-61
2023/01/11 03:13:08;;;;;;;;;;;;;;;11.19;94.29;100078.03;5094303;28;19940;-60
2023/01/11 03:15:52;;;;;;;;;;;;;;;11.19;94.40;100088.66;5077151;28;19933;-60
2023/01/11 03:18:29;;;;;;;;;;;;;;;11.16;95.11;100080.78;5084971;28;19941;-60
2023/01/11 03:21:13;;;;;;;;;;;;;;;11.25;95.20;100091.16;5081725;28;20308;-61
2023/01/11 03:23:49;;;;;;;;;;;;;;;11.30;95.30;100097.19;5091965;28;19943;-61
2023/01/11 03:26:33;;;;;;;;;;;;;;;11.29;94.70;100106.06;5087419;28;19931;-60
2023/01/11 03:29:06;;;;;;;;;;;;;;;11.32;94.63;100105.97;5074425;28;20044;-60
2023/01/11 03:31:33;;;;;;;;;;;;;;;11.30;95.30;100103.34;5075917;28;19955;-60
2023/01/11 03:34:08;;;;;;;;;;;;;;;11.38;95.40;100103.13;5074758;28;19936;-61
2023/01/11 03:36:38;;;;;;;;;;;;;;;11.33;94.54;100086.44;5074332;28;20031;-61
2023/01/11 03:39:23;;;;;;;;;;;;;;;11.36;94.90;100083.66;5076369;28;19932;-60
2023/01/11 03:41:51;;;;;;;;;;;;;;;11.41;94.15;100095.00;5074238;28;19934;-60
2023/01/11 03:44:18;;;;;;;;;;;;;;;11.43;94.97;100093.19;5074279;28;19932;-60
2023/01/11 03:46:45;;;;;;;;;;;;;;;11.43;94.23;100096.69;5074705;28;19937;-59
2023/01/11 03:49:23;;;;;;;;;;;;;;;11.52;94.81;100108.81;5092645;28;20001;-61
2023/01/11 03:51:50;;;;;;;;;;;;;;;11.46;94.82;100093.94;5093434;28;20288;-60
2023/01/11 03:54:20;;;;;;;;;;;;;;;11.48;94.70;100092.06;5077171;28;19941;-60
2023/01/11 03:56:49;;;;;;;;;;;;;;;11.52;93.91;100088.38;5072933;28;19938;-60
2023/01/11 03:59:14;;;;;;;;;;;;;;;11.53;94.70;100091.94;5078716;28;20677;-60
2023/01/11 04:01:39;;;;;;;;;;;;;;;11.52;94.41;100092.84;5092873;28;20012;-61
2023/01/11 04:04:04;;;;;;;;;;;;;;;11.55;93.63;100087.41;5092670;28;20031;-60
2023/01/11 04:06:32;;;;;;;;;;;;;;;11.60;93.65;100080.13;5075226;28;20450;-60
2023/01/11 04:08:58;;;;;;;;;;;;;;;11.60;94.02;100082.78;5080717;28;19950;-60
2023/01/11 04:11:23;;;;;;;;;;;;;;;11.63;93.08;100070.25;5089897;28;19933;-60
2023/01/11 04:13:48;;;;;;;;;;;;;;;11.66;93.41;100061.31;5093832;28;19930;-60
2023/01/11 04:16:13;;;;;;;;;;;;;;;11.74;92.84;100061.88;5093698;28;20452;-60
2023/01/11 04:18:39;;;;;;;;;;;;;;;11.80;92.32;100058.97;5093610;28;19926;-60
2023/01/11 04:21:04;;;;;;;;;;;;;;;11.79;92.83;100065.25;5085947;28;19940;-60
2023/01/11 04:23:29;;;;;;;;;;;;;;;11.75;92.62;100052.94;5096193;28;19934;-59
2023/01/11 04:25:55;;;;;;;;;;;;;;;11.77;92.24;100049.31;5089092;28;19937;-60
2023/01/11 04:28:20;;;;;;;;;;;;;;;11.80;92.80;100051.00;5073225;28;19950;-60
2023/01/11 04:30:45;;;;;;;;;;;;;;;11.81;91.94;100042.09;5073266;28;19955;-60
2023/01/11 04:33:12;;;;;;;;;;;;;;;11.82;92.33;100049.16;5081888;28;19934;-60
2023/01/11 04:35:37;;;;;;;;;;;;;;;11.82;92.67;100038.47;5081985;28;20387;-60
2023/01/11 04:38:02;;;;;;;;;;;;;;;11.81;92.79;100047.41;5093102;28;19957;-60
2023/01/11 04:40:28;;;;;;;;;;;;;;;11.82;92.81;100038.47;5093182;28;20340;-60
2023/01/11 04:42:53;;;;;;;;;;;;;;;11.90;92.42;100044.41;5084303;28;19938;-60
2023/01/11 04:45:18;;;;;;;;;;;;;;;11.86;92.74;100045.47;5072962;28;20477;-60
2023/01/11 04:47:43;;;;;;;;;;;;;;;11.92;92.23;100050.53;5074972;28;20002;-60
2023/01/11 04:50:10;;;;;;;;;;;;;;;11.90;92.00;100047.06;5072926;28;19933;-60
2023/01/11 04:52:35;;;;;;;;;;;;;;;11.99;92.47;100060.06;5073462;28;19941;-60
2023/01/11 04:55:01;;;;;;;;;;;;;;;11.97;92.49;100059.25;5092879;28;19959;-60
2023/01/11 04:57:26;;;;;;;;;;;;;;;11.98;92.65;100031.66;5088184;28;19940;-60
2023/01/11 04:59:51;;;;;;;;;;;;;;;12.01;92.39;100020.00;5075433;28;19961;-60
2023/01/11 05:02:17;;;;;;;;;;;;;;;12.02;92.34;100033.28;5072281;28;19954;-60
2023/01/11 05:04:43;;;;;;;;;;;;;;;11.98;92.06;100012.97;5082597;28;20313;-60
2023/01/11 05:07:08;;;;;;;;;;;;;;;12.05;92.30;100017.16;5072567;28;19981;-60
2023/01/11 05:09:34;;;;;;;;;;;;;;;12.07;92.16;100006.44;5076938;28;19995;-60
2023/01/11 05:11:59;;;;;;;;;;;;;;;12.06;92.23;100016.22;5078088;28;19944;-60
2023/01/11 05:14:24;;;;;;;;;;;;;;;12.04;92.48;100003.91;5071723;28;19928;-60
2023/01/11 05:16:50;;;;;;;;;;;;;;;12.02;92.38;100003.06;5076512;28;19939;-60
2023/01/11 05:19:15;;;;;;;;;;;;;;;12.06;92.21;99994.03;5080182;28;19935;-60
2023/01/11 05:21:41;;;;;;;;;;;;;;;12.00;92.11;100005.81;5081666;28;20669;-60
2023/01/11 05:24:09;;;;;;;;;;;;;;;12.03;92.71;99989.69;5084813;28;19938;-61
2023/01/11 05:26:35;;;;;;;;;;;;;;;12.08;92.84;99998.38;5088956;28;19933;-60
2023/01/11 05:29:03;;;;;;;;;;;;;;;12.10;92.64;100006.31;5092362;28;19946;-60
2023/01/11 05:31:29;;;;;;;;;;;;;;;12.12;92.20;99994.69;5089731;28;20338;-60
2023/01/11 05:33:55;;;;;;;;;;;;;;;12.18;92.02;99997.09;5091331;28;20262;-61
2023/01/11 05:36:21;;;;;;;;;;;;;;;12.14;91.96;99992.78;5092402;28;19941;-61
2023/01/11 05:38:48;;;;;;;;;;;;;;;12.13;92.45;99980.41;5088059;28;19948;-60
2023/01/11 05:41:14;;;;;;;;;;;;;;;12.14;92.45;99983.94;5092291;28;19971;-60
2023/01/11 05:46:26;;;;;;;;;;;;;;;12.12;93.00;100000.00;5091554;28;19981;-60
2023/01/11 05:48:53;;;;;;;;;;;;;;;12.09;93.01;99994.81;5086850;28;19988;-60
2023/01/11 05:51:18;;;;;;;;;;;;;;;12.08;92.99;99992.16;5070937;28;19996;-60
2023/01/11 05:53:43;;;;;;;;;;;;;;;12.06;92.87;99999.38;5081217;28;19936;-61
2023/01/11 05:56:09;;;;;;;;;;;;;;;12.02;92.74;99993.28;5086798;28;20040;-60
2023/01/11 05:58:34;;;;;;;;;;;;;;;12.03;93.07;99989.69;5090908;28;19925;-60
2023/01/11 06:00:59;;;;;;;;;;;;;;;12.05;92.89;99995.84;5087692;28;19935;-60
2023/01/11 06:03:25;;;;;;;;;;;;;;;12.06;93.05;99984.22;5091953;28;19993;-61
2023/01/11 06:05:51;;;;;;;;;;;;;;;12.10;92.25;99985.84;5091553;28;19957;-60
2023/01/11 06:08:16;;;;;;;;;;;;;;;12.10;93.00;99983.19;5090138;28;20032;-60
2023/01/11 06:10:42;;;;;;;;;;;;;;;12.06;92.99;99984.22;5092093;28;19944;-60
2023/01/11 06:13:25;;;;;;;;;;;;;;;12.11;93.15;99982.25;5078159;28;20270;-60
2023/01/11 06:15:53;;;;;;;;;;;;;;;12.07;93.08;99985.09;5086224;28;20340;-60
2023/01/11 06:18:19;;;;;;;;;;;;;;;12.08;93.27;99981.50;5083911;28;19935;-61
2023/01/11 06:20:47;;;;;;;;;;;;;;;12.12;92.54;99988.47;5071718;28;19940;-60
2023/01/11 06:23:13;;;;;;;;;;;;;;;12.12;92.90;99977.78;5076127;28;19973;-60
2023/01/11 06:25:38;;;;;;;;;;;;;;;12.13;92.57;99985.72;5088913;28;19984;-60
2023/01/11 06:28:03;;;;;;;;;;;;;;;12.13;92.95;99972.41;5094301;28;19964;-60
2023/01/11 06:30:29;;;;;;;;;;;;;;;12.13;93.36;99974.19;5082659;28;19940;-60
2023/01/11 06:32:54;;;;;;;;;;;;;;;12.05;93.39;99970.97;5071568;28;20313;-60
2023/01/11 06:35:19;;;;;;;;;;;;;;;12.02;94.18;99961.31;5073598;28;19966;-60
2023/01/11 06:37:45;;;;;;;;;;;;;;;11.99;94.50;99955.22;5077675;28;19942;-60
2023/01/11 06:40:10;;;;;;;;;;;;;;;12.03;94.59;99952.38;5080305;28;20411;-60
2023/01/11 06:42:35;;;;;;;;;;;;;;;12.03;95.20;99952.38;5084969;28;19933;-60
2023/01/11 06:45:01;;;;;;;;;;;;;;;12.02;94.95;99953.31;5075291;28;19965;-61
2023/01/11 06:47:26;;;;;;;;;;;;;;;12.06;95.34;99940.72;5075877;28;19946;-60
2023/01/11 06:49:51;;;;;;;;;;;;;;;12.06;95.71;99946.91;5093266;28;19956;-60
2023/01/11 06:52:17;;;;;;;;;;;;;;;12.09;95.31;99951.25;5095430;28;19949;-60
2023/01/11 06:54:42;;;;;;;;;;;;;;;12.07;95.89;99943.31;5083744;28;19969;-60
2023/01/11 06:57:07;;;;;;;;;;;;;;;12.10;95.29;99934.31;5074986;28;19941;-60
2023/01/11 06:59:32;;;;;;;;;;;;;;;12.11;95.90;99923.59;5076588;28;19956;-60
2023/01/11 07:01:58;;;;;;;;;;;;;;;12.10;95.65;99937.88;5075516;28;19934;-60
2023/01/11 07:04:23;;;;;;;;;;;;;;;12.14;95.58;99928.78;5088492;28;19953;-60
2023/01/11 07:06:48;;;;;;;;;;;;;;;12.15;95.54;99927.88;5091278;28;19938;-60
2023/01/11 07:09:14;;;;;;;;;;;;;;;12.19;95.75;99918.81;5090304;28;20374;-60
2023/01/11 07:11:39;;;;;;;;;;;;;;;12.18;95.80;99914.44;5094957;28;19929;-60
2023/01/11 07:14:05;;;;;;;;;;;;;;;12.25;94.92;99926.59;5088434;28;20334;-60
2023/01/11 07:16:30;;;;;;;;;;;;;;;12.27;95.14;99908.72;5074725;28;20004;-61
2023/01/11 07:18:55;;;;;;;;;;;;;;;12.26;94.82;99920.31;5056477;28;19968;-60
2023/01/11 07:21:21;;;;;;;;;;;;;;;12.30;95.21;99919.28;5087638;28;20291;-60
2023/01/11 07:23:47;;;;;;;;;;;;;;;12.32;94.45;99909.38;5085110;28;19929;-60
2023/01/11 07:26:15;;;;;;;;;;;;;;;12.34;94.46;99915.53;5084276;28;20038;-60
2023/01/11 07:28:41;;;;;;;;;;;;;;;12.31;94.81;99913.00;5074457;28;20397;-61
2023/01/11 07:31:06;;;;;;;;;;;;;;;12.36;94.32;99916.34;5074006;28;20016;-60
2023/01/11 07:33:31;;;;;;;;;;;;;;;12.42;94.29;99907.22;5090245;28;19937;-60
2023/01/11 07:35:59;;;;;;;;;;;;;;;12.42;94.43;99908.06;5094634;28;19961;-61
2023/01/11 07:38:24;;;;;;;;;;;;;;;12.41;94.37;99909.00;5085631;28;19938;-61
2023/01/11 07:40:50;;;;;;;;;;;;;;;12.47;94.10;99899.91;5074105;28;20031;-61
2023/01/11 07:43:17;;;;;;;;;;;;;;;12.46;93.99;99904.34;5074663;28;20295;-61
2023/01/11 07:45:43;;;;;;;;;;;;;;;12.51;94.19;99907.69;5075897;28;19990;-61
2023/01/11 07:48:09;;;;;;;;;;;;;;;12.58;93.69;99914.53;5055939;28;19960;-61
2023/01/11 07:50:39;;;;;;;;;;;;;;;12.59;93.51;99910.91;5076355;28;19940;-61
2023/01/11 07:53:04;;;;;;;;;;;;;;;12.57;93.90;99912.78;5078607;28;20340;-61
2023/01/11 07:55:29;;;;;;;;;;;;;;;12.60;93.90;99909.97;5091174;28;19971;-61
2023/01/11 07:57:55;;;;;;;;;;;;;;;12.62;93.30;99908.09;5075397;28;20034;-58
2023/01/11 08:00:21;;;;;;;;;;;;;;;12.67;93.34;99905.22;5078400;28;20380;-58
2023/01/11 08:02:48;;;;;;;;;;;;;;;12.70;93.12;99907.78;5082539;28;19933;-58
2023/01/11 08:05:13;;;;;;;;;;;;;;;12.71;92.96;99905.06;5093977;28;20435;-58
2023/01/11 08:07:40;;;;;;;;;;;;;;;12.71;93.22;99921.06;5093923;28;21841;-59
2023/01/11 08:10:05;;;;;;;;;;;;;;;12.73;92.84;99916.53;5073752;28;19947;-58
2023/01/11 08:15:14;;;;;;;;;;;;;;;12.74;93.59;99917.38;5075827;28;19982;-58
2023/01/11 08:17:40;;;;;;;;;;;;;;;12.73;92.70;99923.69;5073334;28;19931;-58
2023/01/11 08:20:05;;;;;;;;;;;;;;;12.78;92.03;99922.53;5074379;28;19978;-61
2023/01/11 08:22:30;;;;;;;;;;;;;;;12.79;92.35;99923.41;5093556;28;19933;-61
2023/01/11 08:24:56;;;;;;;;;;;;;;;12.82;92.02;99924.13;5086665;28;19959;-61
2023/01/11 08:27:21;;;;;;;;;;;;;;;12.83;91.93;99931.19;5090195;28;20497;-61
2023/01/11 08:29:46;;;;;;;;;;;;;;;12.84;91.98;99938.28;5080926;28;19934;-61
2023/01/11 08:32:12;;;;;;;;;;;;;;;12.85;92.06;99931.16;5074950;28;19939;-61
2023/01/11 08:34:37;;;;;;;;;;;;;;;12.89;91.77;99927.41;5085770;28;19947;-61
2023/01/11 08:37:04;;;;;;;;;;;;;;;12.86;91.71;99920.41;5090663;28;19978;-61
2023/01/11 08:39:29;;;;;;;;;;;;;;;12.91;91.56;99931.75;5092482;28;19933;-59
2023/01/11 08:41:58;;;;;;;;;;;;;;;12.92;91.26;99922.81;5084992;28;19936;-58
2023/01/11 08:44:23;;;;;;;;;;;;;;;12.89;91.20;99933.63;5072416;28;20030;-58
2023/01/11 08:46:48;;;;;;;;;;;;;;;12.91;90.95;99929.09;5073857;28;19964;-59
2023/01/11 08:49:13;;;;;;;;;;;;;;;12.96;91.60;99934.22;5092522;28;19950;-58
2023/01/11 08:51:39;;;;;;;;;;;;;;;12.98;90.89;99940.38;5092336;28;19967;-58
2023/01/11 08:54:08;;;;;;;;;;;;;;;13.01;90.45;99930.44;5085939;28;19937;-58
2023/01/11 08:56:34;;;;;;;;;;;;;;;13.01;90.35;99940.28;5072829;28;19989;-58
2023/01/11 08:58:59;;;;;;;;;;;;;;;13.01;90.18;99935.78;5070318;28;20389;-59
2023/01/11 09:01:24;;;;;;;;;;;;;;;12.99;90.18;99937.63;5072861;28;19948;-58
2023/01/11 09:03:50;;;;;;;;;;;;;;;13.02;90.61;99942.00;5087071;28;20004;-59
2023/01/11 09:06:17;;;;;;;;;;;;;;;13.05;91.14;99942.72;5089289;28;20014;-58
2023/01/11 09:08:42;;;;;;;;;;;;;;;12.98;91.35;99943.88;5082407;28;20010;-61
2023/01/11 09:11:52;;;;;;;;;;;;;;;13.02;91.56;99932.19;5074209;28;20348;-60
2023/01/11 09:13:53;;;;;;;;;;;;;;;13.04;91.60;99956.16;5075436;28;19943;-60
2023/01/11 09:16:18;;;;;;;;;;;;;;;13.03;91.50;99941.06;5092590;28;19975;-60
2023/01/11 09:18:44;;;;;;;;;;;;;;;13.05;90.74;99947.19;5092436;28;19936;-61
2023/01/11 09:21:09;;;;;;;;;;;;;;;13.04;91.23;99948.13;5077336;28;19936;-60
2023/01/11 09:23:35;;;;;;;;;;;;;;;13.04;90.98;99951.69;5081256;28;20265;-61
2023/01/11 09:26:01;;;;;;;;;;;;;;;13.03;90.98;99939.25;5091427;28;19939;-61
2023/01/11 09:28:26;;;;;;;;;;;;;;;13.04;91.40;99945.47;5110016;28;19982;-61
2023/01/11 09:30:52;;;;;;;;;;;;;;;13.04;91.31;99943.69;5111201;28;19945;-61
2023/01/11 09:33:17;;;;;;;;;;;;;;;13.01;91.95;99949.13;5087871;28;20031;-61
2023/01/11 09:35:45;;;;;;;;;;;;;;;13.00;91.48;99944.69;5079528;28;19941;-61
2023/01/11 09:38:10;;;;;;;;;;;;;;;13.03;92.12;99949.09;5071558;28;19932;-61
2023/01/11 09:40:47;;;;;;;;;;;;;;;12.97;92.75;99952.84;5071470;28;19933;-61
2023/01/11 09:43:13;;;;;;;;;;;;;;;13.01;93.74;99951.78;5071612;28;19988;-61
2023/01/11 09:45:45;;;;;;;;;;;;;;;13.00;94.32;99966.06;5074887;28;19936;-61
2023/01/11 09:48:27;;;;;;;;;;;;;;;12.92;95.09;99956.63;5091695;28;19949;-59
2023/01/11 09:50:53;;;;;;;;;;;;;;;12.90;96.33;99961.16;5073034;28;19933;-59
2023/01/11 09:53:29;;;;;;;;;;;;;;;12.90;97.27;99956.72;5075383;28;20460;-59
2023/01/11 09:55:57;;;;;;;;;;;;;;;12.84;97.88;99962.31;5089915;28;19964;-59
2023/01/11 09:58:32;;;;;;;;;;;;;;;12.81;98.74;99958.91;5081299;28;19944;-59
2023/01/11 10:01:01;;;;;;;;;;;;;;;12.77;99.61;99963.50;5090197;28;20005;-59
2023/01/11 10:03:46;;;;;;;;;;;;;;;12.73;99.76;99966.38;5088170;28;19936;-60
2023/01/11 10:06:17;;;;;;;;;;;;;;;12.75;99.83;99960.03;5091064;28;20441;-60
2023/01/11 10:08:58;;;;;;;;;;;;;;;12.75;100.00;99960.03;5092805;28;20002;-60
2023/01/11 10:11:40;;;;;;;;;;;;;;;12.75;100.00;99957.34;5094694;28;19945;-61
2023/01/11 10:14:24;;;;;;;;;;;;;;;12.68;100.00;99958.56;5086270;28;19939;-61
2023/01/11 10:16:58;;;;;;;;;;;;;;;12.73;100.00;99950.38;5093670;28;20024;-61
2023/01/11 10:19:37;;;;;;;;;;;;;;;12.70;100.00;99947.81;5081828;28;19984;-61
2023/01/11 10:22:08;;;;;;;;;;;;;;;12.70;100.00;99940.66;5091925;28;20609;-61
2023/01/11 10:24:39;;;;;;;;;;;;;;;12.70;100.00;99950.50;5068804;28;20396;-61
2023/01/11 10:27:09;;;;;;;;;;;;;;;12.67;100.00;99959.47;5101468;28;19942;-60
2023/01/11 10:29:52;;;;;;;;;;;;;;;12.69;100.00;99946.94;5094803;28;19989;-60
2023/01/11 10:32:42;;;;;;;;;;;;;;;12.65;100.00;99955.16;5113761;28;19957;-60
2023/01/11 10:35:30;;;;;;;;;;;;;;;12.63;100.00;99952.56;5088039;28;19990;-60
2023/01/11 10:41:10;;;;;;;;;;;;;;;12.65;100.00;99958.66;5090624;28;19962;-60
2023/01/11 10:43:40;;;;;;;;;;;;;;;12.59;100.00;99963.41;5083845;28;20317;-61
2023/01/11 10:46:11;;;;;;;;;;;;;;;12.62;100.00;99964.16;5092483;28;19937;-61
2023/01/11 10:48:44;;;;;;;;;;;;;;;12.62;100.00;99958.81;5089796;28;20472;-63
2023/01/11 10:51:23;;;;;;;;;;;;;;;12.62;100.00;99964.16;5087517;28;19939;-60
2023/01/11 10:53:48;;;;;;;;;;;;;;;12.61;100.00;99957.09;5074929;28;19933;-60
2023/01/11 10:56:14;;;;;;;;;;;;;;;12.58;100.00;99959.88;5085137;28;19958;-60
2023/01/11 10:58:39;;;;;;;;;;;;;;;12.62;100.00;99953.47;5075286;28;19986;-60
2023/01/11 11:01:16;;;;;;;;;;;;;;;12.66;100.00;99963.09;5082266;28;19934;-60
2023/01/11 11:03:50;;;;;;;;;;;;;;;12.69;100.00;99954.94;5080591;28;19956;-60
2023/01/11 11:06:18;;;;;;;;;;;;;;;12.72;100.00;99946.81;5077723;28;20051;-60
2023/01/11 11:08:52;;;;;;;;;;;;;;;12.73;100.00;99961.03;5074327;28;19993;-59
2023/01/11 11:11:21;;;;;;;;;;;;;;;12.75;100.00;99959.19;5091208;28;19993;-60
2023/01/11 11:14:04;;;;;;;;;;;;;;;12.71;100.00;99953.09;5089357;28;19945;-60
2023/01/11 11:16:30;;;;;;;;;;;;;;;12.80;100.00;99952.69;5092941;28;20366;-60
2023/01/11 11:18:57;;;;;;;;;;;;;;;12.79;100.00;99953.63;5088679;28;20023;-59
2023/01/11 11:21:24;;;;;;;;;;;;;;;12.74;100.00;99957.41;5090771;28;19935;-62
2023/01/11 11:24:13;;;;;;;;;;;;;;;12.75;100.00;99960.03;5091274;28;20031;-60
2023/01/11 11:26:41;;;;;;;;;;;;;;;12.80;100.00;99963.38;5086358;28;19940;-59
2023/01/11 11:29:08;;;;;;;;;;;;;;;12.76;100.00;99964.44;5083392;28;20358;-59
2023/01/11 11:31:35;;;;;;;;;;;;;;;12.72;100.00;99960.16;5081621;28;19936;-59
2023/01/11 11:34:05;;;;;;;;;;;;;;;12.71;100.00;99960.22;5101705;28;19932;-60
2023/01/11 11:36:39;;;;;;;;;;;;;;;12.72;100.00;99961.94;5087591;28;19970;-61
2023/01/11 11:39:09;;;;;;;;;;;;;;;12.81;100.00;99962.47;5085726;28;19954;-60
2023/01/11 11:41:46;;;;;;;;;;;;;;;12.90;100.00;99969.19;5073229;28;19944;-61
2023/01/11 11:44:27;;;;;;;;;;;;;;;12.83;100.00;99959.72;5072633;28;20348;-61
2023/01/11 11:47:05;;;;;;;;;;;;;;;12.76;100.00;99967.13;5092143;28;19933;-60
2023/01/11 11:49:32;;;;;;;;;;;;;;;12.69;100.00;99968.31;5077275;28;20010;-61
2023/01/11 11:51:59;;;;;;;;;;;;;;;12.68;100.00;99963.91;5072453;28;19955;-59
2023/01/11 11:54:24;;;;;;;;;;;;;;;12.71;100.00;99966.44;5078822;28;19931;-59
2023/01/11 11:56:50;;;;;;;;;;;;;;;12.75;100.00;99960.03;5075586;28;20288;-60
2023/01/11 11:59:19;;;;;;;;;;;;;;;12.71;100.00;99969.09;5091756;28;19930;-59
2023/01/11 12:01:47;;;;;;;;;;;;;;;12.75;100.00;99977.88;5083789;28;19962;-59
2023/01/11 12:04:12;;;;;;;;;;;;;;;12.67;100.00;99978.16;5091324;28;20043;-62
2023/01/11 12:06:39;;;;;;;;;;;;;;;12.71;100.00;99970.91;5088551;28;20024;-61
2023/01/11 12:09:09;;;;;;;;;;;;;;;12.71;100.00;99977.13;5053881;28;19988;-61
2023/01/11 12:11:36;;;;;;;;;;;;;;;12.72;100.00;99973.50;5076287;28;20415;-61
2023/01/11 12:14:02;;;;;;;;;;;;;;;12.73;100.00;99961.91;5087902;28;19945;-59
2023/01/11 12:16:32;;;;;;;;;;;;;;;12.74;100.00;99957.41;5085488;28;20010;-58
2023/01/11 12:18:57;;;;;;;;;;;;;;;12.71;100.00;99958.44;5091021;28;19936;-59
2023/01/11 12:21:25;;;;;;;;;;;;;;;12.71;100.00;99957.56;5091814;28;19941;-59
2023/01/11 12:24:05;;;;;;;;;;;;;;;12.77;100.00;99962.63;5095658;28;19969;-58
2023/01/11 12:26:48;;;;;;;;;;;;;;;12.73;100.00;99971.72;5092641;28;19966;-58
2023/01/11 12:29:22;;;;;;;;;;;;;;;12.70;100.00;99980.69;5076731;28;19964;-59
2023/01/11 12:31:50;;;;;;;;;;;;;;;12.69;100.00;99978.97;5074979;28;19942;-59
2023/01/11 12:34:34;;;;;;;;;;;;;;;12.65;100.00;99982.69;5085361;28;19945;-58
2023/01/11 12:37:02;;;;;;;;;;;;;;;12.68;100.00;99990.59;5074086;28;20468;-59
2023/01/11 12:39:42;;;;;;;;;;;;;;;12.68;100.00;99990.59;5085344;28;19984;-58
2023/01/11 12:42:13;;;;;;;;;;;;;;;12.61;100.00;99998.91;5074167;28;19981;-58
2023/01/11 12:44:49;;;;;;;;;;;;;;;12.53;100.00;99996.56;5072921;28;19940;-58
2023/01/11 12:47:14;;;;;;;;;;;;;;;12.50;100.00;100012.69;5073528;28;19943;-57
2023/01/11 12:49:55;;;;;;;;;;;;;;;12.51;100.00;100014.41;5086696;28;19958;-59
2023/01/11 12:52:32;;;;;;;;;;;;;;;12.49;100.00;100018.94;5092495;28;20380;-60
2023/01/11 12:55:23;;;;;;;;;;;;;;;12.53;100.00;100004.56;5079742;28;20312;-60
2023/01/11 12:58:18;;;;;;;;;;;;;;;12.55;100.00;100000.00;5068367;28;19935;-59
2023/01/11 13:00:55;;;;;;;;;;;;;;;12.58;100.00;100009.69;5072154;28;19938;-60
2023/01/11 13:03:33;;;;;;;;;;;;;;;12.59;100.00;100014.97;5073231;28;19935;-60
2023/01/11 13:06:17;;;;;;;;;;;;;;;12.64;100.00;100014.78;5074714;28;19994;-60
2023/01/11 13:08:42;;;;;;;;;;;;;;;12.59;100.00;100030.97;5089844;28;19957;-59
2023/01/11 13:11:33;;;;;;;;;;;;;;;12.56;100.00;100043.56;5090524;28;19934;-60